Time;durP1;ratioP1;P1;durP2;ratioP2;P2;SDS_P1;SDS_P2;PMS_P1;PMS_P2;Temp;Humidity;BMP_temperature;BMP_pressure;BME280_temperature;BME280_humidity;BME280_pressure;Samples;Min_cycle;Max_cycle;Signal;HPM_P1;HPM_P2
2022/07/24 00:00:19;;;;;;;20.23;15.45;;;19.10;74.10;;;;;;5063478;28;20044;-75
2022/07/24 00:02:44;;;;;;;20.13;14.70;;;19.00;74.10;;;;;;5063561;28;20504;-75
2022/07/24 00:05:10;;;;;;;18.67;13.57;;;19.00;74.30;;;;;;5063149;28;20043;-76
2022/07/24 00:07:36;;;;;;;17.27;12.95;;;18.90;74.30;;;;;;5064745;28;20028;-75
2022/07/24 00:10:06;;;;;;;17.80;12.93;;;18.90;73.90;;;;;;5064103;28;20040;-76
2022/07/24 00:12:31;;;;;;;17.13;12.25;;;18.90;73.90;;;;;;5062744;28;20045;-75
2022/07/24 00:14:57;;;;;;;17.33;12.85;;;18.80;73.60;;;;;;5067263;28;20082;-75
2022/07/24 00:17:23;;;;;;;18.25;12.82;;;18.80;73.50;;;;;;5062895;28;20036;-76
2022/07/24 00:19:48;;;;;;;17.27;13.15;;;18.80;73.40;;;;;;5061647;28;20076;-75
2022/07/24 00:22:14;;;;;;;16.90;12.07;;;18.80;73.40;;;;;;5062716;28;20167;-76
2022/07/24 00:24:40;;;;;;;16.17;11.63;;;18.70;73.50;;;;;;5062863;28;20384;-75
2022/07/24 00:27:06;;;;;;;17.38;12.43;;;18.70;73.60;;;;;;5058733;28;20044;-75
2022/07/24 00:29:31;;;;;;;17.33;12.05;;;18.80;73.60;;;;;;5062865;28;20036;-75
2022/07/24 00:31:57;;;;;;;14.15;11.32;;;18.70;73.60;;;;;;5065132;28;20039;-75
2022/07/24 00:34:23;;;;;;;15.52;11.95;;;18.80;73.50;;;;;;5059347;28;20036;-75
2022/07/24 00:36:49;;;;;;;16.08;11.43;;;18.70;73.40;;;;;;5061337;28;20656;-75
2022/07/24 00:39:15;;;;;;;14.20;10.90;;;18.70;73.30;;;;;;5062322;28;20120;-76
2022/07/24 00:41:41;;;;;;;15.23;11.80;;;18.70;73.20;;;;;;5062710;28;20040;-76
2022/07/24 00:44:16;;;;;;;16.05;11.60;;;18.70;73.20;;;;;;5061560;28;20105;-76
2022/07/24 00:46:43;;;;;;;14.60;11.60;;;18.70;73.30;;;;;;5061377;28;20829;-75
2022/07/24 00:49:12;;;;;;;15.02;11.52;;;18.70;73.40;;;;;;5066486;28;20032;-76
2022/07/24 00:51:40;;;;;;;16.67;11.32;;;18.70;73.40;;;;;;5057288;28;20040;-75
2022/07/24 00:54:08;;;;;;;17.15;12.73;;;18.70;73.40;;;;;;5062415;28;20122;-75
2022/07/24 00:56:34;;;;;;;17.67;12.38;;;18.60;73.60;;;;;;5061574;28;20024;-75
2022/07/24 00:59:01;;;;;;;15.20;12.38;;;18.60;73.70;;;;;;5062320;28;20116;-75
2022/07/24 01:01:26;;;;;;;15.10;12.32;;;18.60;73.70;;;;;;5057577;28;20032;-75
2022/07/24 01:03:52;;;;;;;17.02;11.98;;;18.60;73.60;;;;;;5061779;28;20040;-75
2022/07/24 01:06:19;;;;;;;17.10;14.32;;;18.60;73.80;;;;;;5062384;28;20036;-75
2022/07/24 01:08:45;;;;;;;16.27;13.15;;;18.60;73.90;;;;;;5060013;28;20041;-75
2022/07/24 01:11:11;;;;;;;17.05;14.05;;;18.60;74.10;;;;;;5061710;28;20056;-75
2022/07/24 01:13:38;;;;;;;18.50;14.52;;;18.60;74.30;;;;;;5061307;28;20032;-74
2022/07/24 01:16:04;;;;;;;18.38;14.20;;;18.50;74.50;;;;;;5062176;28;20072;-76
2022/07/24 01:18:30;;;;;;;17.17;13.88;;;18.50;74.50;;;;;;5062636;28;20044;-75
2022/07/24 01:20:55;;;;;;;17.75;13.52;;;18.40;74.70;;;;;;5060402;28;20557;-75
2022/07/24 01:23:22;;;;;;;19.15;14.88;;;18.30;74.70;;;;;;5059554;28;20063;-76
2022/07/24 01:25:48;;;;;;;19.13;14.07;;;18.30;74.90;;;;;;5064410;28;20373;-75
2022/07/24 01:28:14;;;;;;;22.38;14.85;;;18.20;75.20;;;;;;5061829;28;20039;-75
2022/07/24 01:30:40;;;;;;;18.38;14.30;;;18.10;75.40;;;;;;5061125;28;20040;-76
2022/07/24 01:33:06;;;;;;;16.85;13.95;;;18.10;75.50;;;;;;5058283;28;20059;-76
2022/07/24 01:35:32;;;;;;;23.67;14.80;;;18.10;75.60;;;;;;5062077;28;20495;-76
2022/07/24 01:37:58;;;;;;;18.00;14.65;;;18.10;75.60;;;;;;5062181;28;20028;-76
2022/07/24 01:40:24;;;;;;;17.23;13.95;;;18.10;75.70;;;;;;5061579;28;20036;-76
2022/07/24 01:42:50;;;;;;;19.83;14.77;;;18.10;75.90;;;;;;5064261;28;20043;-76
2022/07/24 01:45:16;;;;;;;17.15;13.43;;;18.10;75.90;;;;;;5062100;28;20647;-76
2022/07/24 01:47:43;;;;;;;17.92;14.27;;;18.10;75.90;;;;;;5063217;28;20036;-76
2022/07/24 01:50:10;;;;;;;18.48;12.88;;;18.00;75.70;;;;;;5056797;28;20033;-76
2022/07/24 01:52:36;;;;;;;19.48;13.63;;;18.00;75.90;;;;;;5060785;28;20041;-75
2022/07/24 01:55:02;;;;;;;17.13;13.45;;;17.90;75.90;;;;;;5064032;28;20040;-76
2022/07/24 01:57:28;;;;;;;15.82;13.30;;;18.00;75.60;;;;;;5060325;28;20032;-76
2022/07/24 01:59:54;;;;;;;18.33;13.05;;;18.00;75.90;;;;;;5057619;28;20471;-76
2022/07/24 02:02:19;;;;;;;17.50;13.27;;;17.90;75.70;;;;;;5060709;28;20054;-76
2022/07/24 02:04:45;;;;;;;18.20;12.57;;;17.80;75.60;;;;;;5062557;28;20036;-76
2022/07/24 02:07:11;;;;;;;15.73;11.73;;;17.80;75.80;;;;;;5060536;28;20033;-75
2022/07/24 02:09:37;;;;;;;14.10;11.32;;;17.80;75.60;;;;;;5059868;28;20041;-76
2022/07/24 02:12:03;;;;;;;14.98;12.15;;;17.80;75.30;;;;;;5060955;28;20352;-76
2022/07/24 02:14:28;;;;;;;15.23;12.27;;;17.80;75.30;;;;;;5061124;28;20643;-76
2022/07/24 02:16:54;;;;;;;15.13;11.57;;;17.70;75.30;;;;;;5061998;28;20387;-76
2022/07/24 02:19:20;;;;;;;17.92;13.05;;;17.70;75.40;;;;;;5058382;28;20644;-76
2022/07/24 02:21:45;;;;;;;15.48;11.68;;;17.70;75.30;;;;;;5061123;28;20557;-76
2022/07/24 02:24:11;;;;;;;16.95;12.38;;;17.70;75.20;;;;;;5061845;28;20060;-76
2022/07/24 02:26:37;;;;;;;18.70;12.95;;;17.70;75.30;;;;;;5062958;28;20115;-76
2022/07/24 02:29:03;;;;;;;16.98;11.95;;;17.70;75.40;;;;;;5058251;28;20036;-76
2022/07/24 02:31:28;;;;;;;16.70;13.68;;;17.60;75.50;;;;;;5057112;28;20476;-76
2022/07/24 02:33:54;;;;;;;18.50;15.00;;;17.60;75.40;;;;;;5060920;28;20029;-75
2022/07/24 02:36:20;;;;;;;18.77;15.23;;;17.60;75.30;;;;;;5059764;28;20464;-75
2022/07/24 02:38:45;;;;;;;17.77;13.75;;;17.60;75.30;;;;;;5060960;28;20123;-76
2022/07/24 02:41:11;;;;;;;19.10;14.73;;;17.60;75.60;;;;;;5061581;28;20037;-75
2022/07/24 02:43:37;;;;;;;17.13;14.30;;;17.60;75.80;;;;;;5072848;28;20472;-75
2022/07/24 02:46:02;;;;;;;21.10;15.00;;;17.50;75.80;;;;;;5067192;28;20036;-76
2022/07/24 02:48:28;;;;;;;16.83;13.93;;;17.50;76.00;;;;;;5065240;28;20032;-76
2022/07/24 02:50:54;;;;;;;19.45;15.13;;;17.50;76.00;;;;;;5065020;28;20040;-75
2022/07/24 02:53:20;;;;;;;19.27;14.75;;;17.50;76.00;;;;;;5065463;28;20105;-75
2022/07/24 02:55:46;;;;;;;19.88;15.23;;;17.50;76.10;;;;;;5066730;28;20466;-75
2022/07/24 02:58:11;;;;;;;18.27;15.60;;;17.50;76.20;;;;;;5063416;28;20041;-75
2022/07/24 03:00:37;;;;;;;21.02;15.93;;;17.50;76.20;;;;;;5066643;28;20392;-75
2022/07/24 03:03:03;;;;;;;18.15;15.45;;;17.50;76.20;;;;;;5064820;28;20051;-75
2022/07/24 03:05:28;;;;;;;20.63;16.58;;;17.50;76.20;;;;;;5064664;28;20029;-75
2022/07/24 03:07:54;;;;;;;18.83;15.05;;;17.40;76.30;;;;;;5063352;28;20545;-75
2022/07/24 03:10:20;;;;;;;21.23;15.73;;;17.40;76.50;;;;;;5063934;28;20171;-75
2022/07/24 03:12:46;;;;;;;19.05;15.02;;;17.40;76.50;;;;;;5064190;28;20049;-75
2022/07/24 03:15:13;;;;;;;18.33;15.20;;;17.30;76.60;;;;;;5070496;28;20373;-75
2022/07/24 03:17:39;;;;;;;22.17;15.90;;;17.30;76.60;;;;;;5063893;28;20097;-75
2022/07/24 03:20:06;;;;;;;19.27;15.27;;;17.30;76.80;;;;;;5061910;28;20047;-75
2022/07/24 03:22:31;;;;;;;18.05;14.40;;;17.30;76.90;;;;;;5063244;28;20044;-76
2022/07/24 03:24:57;;;;;;;19.30;15.20;;;17.30;77.00;;;;;;5062309;28;20045;-75
2022/07/24 03:27:23;;;;;;;18.38;14.80;;;17.30;76.90;;;;;;5061333;28;20040;-75
2022/07/24 03:29:49;;;;;;;19.73;13.90;;;17.30;76.80;;;;;;5061102;28;20155;-75
2022/07/24 03:32:14;;;;;;;18.98;14.50;;;17.30;76.80;;;;;;5065268;28;20044;-75
2022/07/24 03:34:40;;;;;;;18.38;14.05;;;17.30;76.70;;;;;;5062543;28;20032;-75
2022/07/24 03:37:06;;;;;;;19.50;14.02;;;17.30;76.80;;;;;;5064666;28;20141;-76
2022/07/24 03:39:31;;;;;;;18.67;14.35;;;17.30;76.80;;;;;;5066146;28;20029;-75
2022/07/24 03:41:57;;;;;;;20.45;14.23;;;17.30;76.80;;;;;;5065831;28;20376;-75
2022/07/24 03:44:23;;;;;;;19.10;13.55;;;17.20;76.90;;;;;;5060750;28;20082;-75
2022/07/24 03:46:49;;;;;;;17.77;13.68;;;17.20;76.80;;;;;;5061307;28;20194;-75
2022/07/24 03:49:14;;;;;;;16.77;14.13;;;17.30;76.60;;;;;;5058264;28;20631;-76
2022/07/24 03:51:40;;;;;;;18.52;14.00;;;17.30;76.70;;;;;;5062962;28;20519;-75
2022/07/24 03:54:05;;;;;;;17.23;13.77;;;17.30;76.50;;;;;;5056822;28;20075;-73
2022/07/24 03:56:31;;;;;;;16.77;13.73;;;17.30;76.20;;;;;;5064182;28;20496;-74
2022/07/24 03:58:57;;;;;;;18.00;14.32;;;17.30;76.40;;;;;;5063498;28;20435;-74
2022/07/24 04:01:23;;;;;;;17.52;12.55;;;17.30;76.20;;;;;;5064805;28;20043;-74
2022/07/24 04:03:48;;;;;;;18.10;14.52;;;17.30;76.30;;;;;;5064626;28;20472;-74
2022/07/24 04:06:14;;;;;;;18.52;15.32;;;17.20;76.30;;;;;;5060738;28;20033;-74
2022/07/24 04:08:40;;;;;;;16.88;14.55;;;17.20;76.40;;;;;;5063453;28;20085;-74
2022/07/24 04:11:07;;;;;;;19.30;14.85;;;17.30;76.30;;;;;;5061955;28;20432;-74
2022/07/24 04:13:33;;;;;;;18.65;14.35;;;17.30;76.00;;;;;;5064832;28;20601;-75
2022/07/24 04:15:59;;;;;;;17.00;13.98;;;17.30;75.90;;;;;;5061361;28;20558;-75
2022/07/24 04:18:25;;;;;;;17.45;13.68;;;17.40;75.80;;;;;;5066663;28;20041;-75
2022/07/24 04:20:51;;;;;;;16.63;12.73;;;17.40;75.80;;;;;;5063424;28;20036;-74
2022/07/24 04:23:17;;;;;;;17.48;13.35;;;17.40;75.60;;;;;;5062581;28;20057;-75
2022/07/24 04:25:43;;;;;;;18.80;12.30;;;17.50;75.40;;;;;;5061409;28;20038;-74
2022/07/24 04:28:09;;;;;;;18.23;12.40;;;17.50;75.30;;;;;;5060080;28;20055;-75
2022/07/24 04:30:34;;;;;;;17.08;12.38;;;17.60;75.10;;;;;;5065825;28;20094;-75
2022/07/24 04:33:00;;;;;;;18.13;12.68;;;17.60;75.00;;;;;;5062785;28;20051;-75
2022/07/24 04:35:26;;;;;;;18.85;13.15;;;17.60;74.80;;;;;;5062809;28;20548;-75
2022/07/24 04:37:52;;;;;;;18.23;12.88;;;17.60;74.70;;;;;;5061317;28;20028;-75
2022/07/24 04:40:18;;;;;;;16.02;11.90;;;17.60;74.80;;;;;;5063133;28;20523;-75
2022/07/24 04:42:43;;;;;;;17.45;12.85;;;17.60;74.80;;;;;;5061495;28;20479;-75
2022/07/24 04:45:10;;;;;;;17.08;12.10;;;17.70;75.00;;;;;;5063124;28;20574;-75
2022/07/24 04:47:37;;;;;;;16.95;11.52;;;17.70;74.90;;;;;;5062282;28;20084;-75
2022/07/24 04:50:05;;;;;;;18.10;12.95;;;17.70;74.70;;;;;;5062249;28;20709;-75
2022/07/24 04:52:30;;;;;;;15.05;11.13;;;17.70;74.80;;;;;;5064995;28;20032;-74
2022/07/24 04:54:56;;;;;;;19.27;13.15;;;17.70;74.40;;;;;;5063854;28;20097;-75
2022/07/24 04:57:22;;;;;;;17.73;13.07;;;17.80;74.30;;;;;;5059439;28;20159;-75
2022/07/24 04:59:47;;;;;;;17.80;12.52;;;17.80;74.30;;;;;;5057773;28;20165;-75
2022/07/24 05:02:13;;;;;;;16.27;11.85;;;17.90;74.10;;;;;;5068503;28;20479;-75
2022/07/24 05:04:39;;;;;;;18.02;12.75;;;17.90;74.30;;;;;;5069347;28;20028;-74
2022/07/24 05:07:04;;;;;;;17.80;11.50;;;17.90;74.00;;;;;;5066885;28;20041;-75
2022/07/24 05:09:30;;;;;;;17.17;12.38;;;18.00;74.00;;;;;;5060526;28;20045;-75
2022/07/24 05:11:56;;;;;;;16.00;11.93;;;18.00;74.00;;;;;;5061593;28;20119;-74
2022/07/24 05:14:22;;;;;;;16.05;11.65;;;18.00;73.60;;;;;;5058920;28;20120;-75
2022/07/24 05:16:48;;;;;;;17.30;11.82;;;18.10;73.70;;;;;;5060461;28;20119;-75
2022/07/24 05:19:13;;;;;;;17.55;12.27;;;18.10;73.50;;;;;;5061985;28;20070;-75
2022/07/24 05:21:39;;;;;;;16.13;11.77;;;18.10;73.70;;;;;;5061442;28;20106;-75
2022/07/24 05:24:05;;;;;;;15.90;11.82;;;18.20;73.60;;;;;;5062179;28;20048;-75
2022/07/24 05:26:32;;;;;;;15.48;10.82;;;18.20;74.10;;;;;;5066627;28;20047;-75
2022/07/24 05:28:59;;;;;;;15.10;11.32;;;18.80;73.70;;;;;;5062011;28;20114;-75
2022/07/24 05:31:25;;;;;;;15.88;10.55;;;20.50;68.40;;;;;;5060908;28;20039;-75
2022/07/24 05:33:50;;;;;;;13.15;9.52;;;22.20;61.10;;;;;;5062546;28;20115;-75
2022/07/24 05:36:16;;;;;;;12.95;8.93;;;23.60;56.50;;;;;;5062227;28;20039;-75
2022/07/24 05:38:43;;;;;;;12.50;8.88;;;24.50;53.30;;;;;;5062192;28;20032;-75
2022/07/24 05:41:09;;;;;;;10.38;7.78;;;25.30;51.40;;;;;;5060831;28;20471;-76
2022/07/24 05:43:35;;;;;;;11.98;7.95;;;26.00;49.90;;;;;;5061537;28;20037;-73
2022/07/24 05:46:01;;;;;;;11.13;7.57;;;26.30;48.20;;;;;;5061304;28;20037;-74
2022/07/24 05:48:26;;;;;;;12.48;8.68;;;26.70;46.60;;;;;;5062138;28;20042;-73
2022/07/24 05:50:52;;;;;;;11.65;7.25;;;26.40;47.00;;;;;;5061261;28;20029;-73
2022/07/24 05:53:18;;;;;;;12.48;7.72;;;26.10;48.60;;;;;;5062160;28;20036;-74
2022/07/24 05:55:44;;;;;;;13.05;7.80;;;26.30;47.80;;;;;;5058342;28;20093;-73
2022/07/24 05:58:09;;;;;;;11.65;7.45;;;26.40;47.60;;;;;;5062633;28;20129;-73
2022/07/24 06:00:35;;;;;;;11.23;8.38;;;26.30;47.70;;;;;;5060641;28;20468;-73
2022/07/24 06:03:01;;;;;;;11.55;8.18;;;26.20;47.80;;;;;;5061652;28;20029;-74
2022/07/24 06:05:26;;;;;;;13.23;8.25;;;25.50;49.20;;;;;;5059857;28;20142;-73
2022/07/24 06:07:52;;;;;;;13.20;7.72;;;24.50;52.10;;;;;;5058333;28;20117;-75
2022/07/24 06:10:18;;;;;;;12.35;7.93;;;23.50;54.70;;;;;;5060820;28;20135;-73
2022/07/24 06:12:44;;;;;;;12.77;7.85;;;22.90;56.40;;;;;;5060499;28;20051;-73
2022/07/24 06:15:09;;;;;;;11.45;8.15;;;22.20;58.10;;;;;;5060471;28;20116;-74
2022/07/24 06:17:35;;;;;;;10.48;7.90;;;22.00;60.00;;;;;;5059576;28;20538;-74
2022/07/24 06:20:01;;;;;;;12.13;7.95;;;21.70;61.10;;;;;;5065170;28;20109;-73
2022/07/24 06:22:27;;;;;;;10.88;7.97;;;21.60;61.30;;;;;;5062136;28;20106;-73
2022/07/24 06:24:54;;;;;;;12.90;8.20;;;21.50;61.80;;;;;;5063471;28;20487;-73
2022/07/24 06:27:20;;;;;;;13.45;7.45;;;21.40;62.80;;;;;;5059044;28;20027;-73
2022/07/24 06:29:46;;;;;;;11.75;7.70;;;21.50;62.60;;;;;;5066913;28;20024;-73
2022/07/24 06:32:11;;;;;;;12.18;7.88;;;21.60;62.30;;;;;;5066976;28;20525;-73
2022/07/24 06:34:37;;;;;;;10.27;7.20;;;21.60;62.70;;;;;;5062926;28;20036;-73
2022/07/24 06:37:02;;;;;;;15.50;6.93;;;21.70;63.20;;;;;;5065062;28;20036;-74
2022/07/24 06:39:28;;;;;;;11.57;6.85;;;21.70;62.00;;;;;;5059333;28;20120;-74
2022/07/24 06:41:54;;;;;;;10.57;6.05;;;21.90;61.30;;;;;;5061177;28;20373;-74
2022/07/24 06:44:19;;;;;;;11.00;6.00;;;22.00;61.10;;;;;;5060459;28;20491;-73
2022/07/24 06:46:45;;;;;;;9.10;5.20;;;22.10;60.30;;;;;;5061335;28;20482;-73
2022/07/24 06:49:10;;;;;;;8.80;5.20;;;22.20;60.10;;;;;;5062051;28;20140;-74
2022/07/24 06:51:36;;;;;;;9.82;6.00;;;22.40;59.60;;;;;;5060264;28;20032;-74
2022/07/24 06:54:02;;;;;;;9.15;5.38;;;22.40;59.80;;;;;;5061061;28;20025;-74
2022/07/24 06:56:27;;;;;;;10.52;5.60;;;22.50;59.50;;;;;;5062824;28;20025;-73
2022/07/24 06:58:53;;;;;;;9.45;5.00;;;22.70;58.60;;;;;;5062165;28;20091;-74
2022/07/24 07:01:19;;;;;;;7.90;4.97;;;22.80;58.30;;;;;;5058696;28;20028;-74
2022/07/24 07:03:44;;;;;;;10.20;5.30;;;23.00;58.10;;;;;;5062047;28;20041;-74
2022/07/24 07:06:10;;;;;;;8.00;4.50;;;23.10;57.30;;;;;;5067947;28;20036;-74
2022/07/24 07:08:36;;;;;;;8.48;5.55;;;23.20;57.40;;;;;;5059839;28;20033;-73
2022/07/24 07:11:02;;;;;;;8.43;4.70;;;23.40;56.60;;;;;;5059081;28;20045;-74
2022/07/24 07:13:27;;;;;;;9.50;4.68;;;23.60;56.70;;;;;;5058933;28;20480;-74
2022/07/24 07:15:53;;;;;;;7.00;3.92;;;23.60;55.90;;;;;;5060711;28;20040;-74
2022/07/24 07:18:19;;;;;;;7.63;4.80;;;23.80;55.00;;;;;;5063044;28;20036;-74
2022/07/24 07:20:44;;;;;;;7.97;4.43;;;23.80;55.70;;;;;;5061908;28;20040;-74
2022/07/24 07:23:10;;;;;;;8.02;4.25;;;24.00;55.60;;;;;;5057997;28;20487;-74
2022/07/24 07:25:36;;;;;;;8.75;4.70;;;24.10;54.40;;;;;;5059600;28;20482;-74
2022/07/24 07:28:01;;;;;;;9.85;4.47;;;24.10;54.40;;;;;;5060800;28;20028;-74
2022/07/24 07:30:27;;;;;;;7.07;4.07;;;24.20;54.40;;;;;;5065010;28;20478;-74
2022/07/24 07:32:53;;;;;;;7.78;4.35;;;24.40;54.10;;;;;;5061336;28;20134;-74
2022/07/24 07:35:19;;;;;;;8.60;4.55;;;24.50;53.30;;;;;;5064193;28;20124;-74
2022/07/24 07:37:46;;;;;;;7.82;4.50;;;24.50;53.10;;;;;;5064597;28;20618;-75
2022/07/24 07:40:12;;;;;;;7.68;4.43;;;24.70;53.00;;;;;;5063424;28;20043;-75
2022/07/24 07:42:37;;;;;;;7.55;4.30;;;24.80;52.80;;;;;;5061452;28;20041;-74
2022/07/24 07:45:04;;;;;;;8.50;4.70;;;24.80;53.70;;;;;;5063356;28;20025;-74
2022/07/24 07:47:29;;;;;;;7.40;4.10;;;24.90;53.70;;;;;;5062719;28;20032;-75
2022/07/24 07:49:55;;;;;;;10.05;4.82;;;25.10;52.80;;;;;;5065670;28;20043;-75
2022/07/24 07:52:21;;;;;;;7.63;4.10;;;25.10;52.90;;;;;;5063670;28;21531;-75
2022/07/24 07:54:46;;;;;;;9.98;4.45;;;25.40;52.70;;;;;;5064263;28;20031;-75
2022/07/24 07:57:12;;;;;;;8.18;4.70;;;25.50;52.10;;;;;;5062673;28;20495;-75
2022/07/24 07:59:38;;;;;;;8.70;4.30;;;25.30;52.20;;;;;;5064556;28;20488;-75
2022/07/24 08:02:03;;;;;;;8.00;4.18;;;25.50;51.70;;;;;;5063663;28;20109;-76
2022/07/24 08:04:29;;;;;;;6.22;3.88;;;25.30;51.60;;;;;;5067126;28;20024;-75
2022/07/24 08:06:55;;;;;;;8.95;4.03;;;25.50;51.90;;;;;;5062720;28;20405;-75
2022/07/24 08:09:21;;;;;;;5.85;3.55;;;25.70;51.60;;;;;;5068960;28;20067;-75
2022/07/24 08:11:46;;;;;;;8.65;3.50;;;25.80;51.30;;;;;;5065674;28;20036;-75
2022/07/24 08:14:12;;;;;;;7.95;3.47;;;26.10;49.40;;;;;;5066746;28;20123;-74
2022/07/24 08:16:38;;;;;;;8.45;3.60;;;26.10;50.20;;;;;;5064516;28;20034;-75
2022/07/24 08:19:03;;;;;;;9.30;4.00;;;26.30;49.50;;;;;;5062934;28;20031;-75
2022/07/24 08:21:31;;;;;;;6.03;3.42;;;26.40;49.30;;;;;;5065060;28;20098;-74
2022/07/24 08:23:57;;;;;;;8.43;3.22;;;26.40;49.10;;;;;;5070740;28;20040;-75
2022/07/24 08:26:22;;;;;;;6.97;3.38;;;26.60;48.70;;;;;;5062758;28;20064;-74
2022/07/24 08:28:48;;;;;;;7.10;3.03;;;26.80;48.50;;;;;;5062302;28;20025;-75
2022/07/24 08:31:13;;;;;;;6.03;3.45;;;27.00;47.70;;;;;;5061842;28;20438;-75
2022/07/24 08:33:39;;;;;;;6.45;3.30;;;27.10;48.20;;;;;;5070690;28;20040;-74
2022/07/24 08:36:05;;;;;;;6.30;3.58;;;27.20;47.80;;;;;;5061848;28;20121;-75
2022/07/24 08:38:31;;;;;;;8.77;3.40;;;27.30;47.20;;;;;;5063667;28;20489;-75
2022/07/24 08:40:56;;;;;;;8.15;3.53;;;27.30;47.60;;;;;;5061200;28;20083;-75
2022/07/24 08:43:22;;;;;;;8.18;3.67;;;27.50;46.80;;;;;;5062898;28;20068;-75
2022/07/24 08:45:51;;;;;;;7.40;3.65;;;27.60;47.20;;;;;;5067256;28;20085;-74
2022/07/24 08:48:20;;;;;;;6.70;3.53;;;27.80;46.60;;;;;;5068337;28;20468;-75
2022/07/24 08:50:46;;;;;;;6.85;3.72;;;27.80;46.10;;;;;;5063931;28;20028;-76
2022/07/24 08:53:12;;;;;;;6.35;3.35;;;27.80;46.00;;;;;;5060491;28;20120;-75
2022/07/24 08:55:38;;;;;;;6.57;2.85;;;28.10;46.00;;;;;;5063123;28;20157;-75
2022/07/24 08:58:04;;;;;;;7.53;3.42;;;28.20;45.10;;;;;;5062029;28;20120;-75
2022/07/24 09:00:32;;;;;;;7.40;3.50;;;28.20;45.20;;;;;;5062481;28;20033;-75
2022/07/24 09:02:57;;;;;;;6.50;3.38;;;28.10;45.60;;;;;;5062777;28;20047;-75
2022/07/24 09:05:23;;;;;;;5.53;3.05;;;28.10;45.60;;;;;;5062050;28;20033;-75
2022/07/24 09:07:49;;;;;;;6.32;2.92;;;28.20;45.00;;;;;;5059909;28;20024;-75
2022/07/24 09:10:16;;;;;;;6.40;3.33;;;28.20;45.30;;;;;;5061602;28;20513;-74
2022/07/24 09:12:45;;;;;;;6.38;3.10;;;28.40;44.70;;;;;;5060896;28;20387;-74
2022/07/24 09:15:30;;;;;;;8.15;3.25;;;28.50;44.40;;;;;;5060650;28;20036;-74
2022/07/24 09:17:59;;;;;;;8.68;3.72;;;28.50;44.20;;;;;;5059287;28;20029;-74
2022/07/24 09:20:29;;;;;;;6.35;3.78;;;28.60;44.10;;;;;;5062553;28;20479;-74
2022/07/24 09:22:59;;;;;;;6.55;3.80;;;28.80;44.10;;;;;;5061481;28;20048;-74
2022/07/24 09:25:27;;;;;;;7.00;3.78;;;29.00;44.70;;;;;;5060592;28;20458;-74
2022/07/24 09:27:57;;;;;;;9.38;3.65;;;29.20;43.80;;;;;;5061379;28;20040;-74
2022/07/24 09:30:28;;;;;;;8.15;3.30;;;29.40;43.30;;;;;;5063993;28;20055;-74
2022/07/24 09:33:18;;;;;;;7.15;4.10;;;29.50;43.30;;;;;;5062257;28;20063;-74
2022/07/24 09:35:45;;;;;;;8.85;4.10;;;29.60;42.70;;;;;;5061306;28;20034;-74
2022/07/24 09:38:15;;;;;;;7.68;4.00;;;29.50;42.70;;;;;;5060869;28;20041;-75
2022/07/24 09:40:44;;;;;;;7.68;4.13;;;29.70;42.60;;;;;;5056511;28;20033;-74
2022/07/24 09:43:14;;;;;;;8.43;4.20;;;29.80;42.00;;;;;;5061605;28;20040;-75
2022/07/24 09:46:05;;;;;;;9.30;4.15;;;29.70;42.30;;;;;;5060781;28;20468;-74
2022/07/24 09:48:40;;;;;;;8.70;4.03;;;29.80;41.70;;;;;;5065005;28;20119;-74
2022/07/24 09:51:14;;;;;;;9.95;4.07;;;29.80;41.90;;;;;;5062033;28;20486;-74
2022/07/24 09:53:41;;;;;;;6.80;3.60;;;29.80;41.50;;;;;;5063596;28;20041;-74
2022/07/24 09:56:06;;;;;;;7.13;4.65;;;29.80;42.20;;;;;;5057349;28;20725;-75
2022/07/24 09:58:35;;;;;;;7.25;3.70;;;29.90;41.30;;;;;;5065463;28;20028;-74
2022/07/24 10:01:02;;;;;;;6.95;4.22;;;30.10;41.80;;;;;;5060746;28;20045;-75
2022/07/24 10:03:31;;;;;;;7.45;4.03;;;30.30;41.10;;;;;;5061474;28;20044;-74
2022/07/24 10:05:59;;;;;;;8.23;4.13;;;30.30;41.20;;;;;;5062442;28;20118;-75
2022/07/24 10:08:26;;;;;;;7.22;3.88;;;30.30;40.90;;;;;;5061539;28;20451;-73
2022/07/24 10:10:52;;;;;;;7.57;4.20;;;30.40;41.30;;;;;;5061743;28;20515;-74
2022/07/24 10:13:18;;;;;;;6.05;3.38;;;30.60;40.50;;;;;;5060687;28;20464;-74
2022/07/24 10:16:01;;;;;;;6.32;3.95;;;30.60;40.40;;;;;;5062288;28;20029;-74
2022/07/24 10:18:58;;;;;;;8.52;4.05;;;30.80;39.90;;;;;;5060411;28;20049;-74
2022/07/24 10:21:32;;;;;;;8.85;3.78;;;31.00;39.50;;;;;;5059361;28;20629;-77
2022/07/24 10:24:06;;;;;;;8.52;3.80;;;30.90;40.00;;;;;;5070507;28;20078;-78
2022/07/24 10:26:44;;;;;;;7.93;3.95;;;30.80;39.00;;;;;;5068779;28;20059;-73
2022/07/24 10:29:18;;;;;;;6.80;3.67;;;30.60;40.10;;;;;;5059920;28;20118;-73
2022/07/24 10:31:50;;;;;;;5.75;3.40;;;30.60;40.40;;;;;;5058838;28;20021;-73
2022/07/24 10:34:43;;;;;;;7.20;3.63;;;31.00;39.90;;;;;;5061085;28;20682;-72
2022/07/24 10:37:20;;;;;;;6.53;3.47;;;31.30;39.70;;;;;;5057998;28;20051;-73
2022/07/24 10:40:07;;;;;;;7.25;3.63;;;31.60;38.50;;;;;;5067963;28;20082;-74
2022/07/24 10:42:33;;;;;;;7.95;3.70;;;31.40;38.20;;;;;;5061300;28;20040;-72
2022/07/24 10:45:18;;;;;;;7.60;3.85;;;31.40;38.60;;;;;;5061692;28;20025;-73
2022/07/24 10:47:45;;;;;;;7.47;3.70;;;31.50;38.70;;;;;;5056326;28;20040;-73
2022/07/24 10:50:11;;;;;;;7.47;3.97;;;31.50;37.90;;;;;;5062098;28;20047;-74
2022/07/24 10:52:39;;;;;;;6.38;3.60;;;31.30;38.60;;;;;;5060368;28;20166;-72
2022/07/24 10:55:26;;;;;;;8.63;4.07;;;31.50;38.80;;;;;;5064543;28;21030;-72
2022/07/24 10:58:16;;;;;;;11.35;4.00;;;31.70;38.20;;;;;;5051202;28;20094;-75
2022/07/24 11:00:48;;;;;;;8.38;3.50;;;31.60;37.60;;;;;;5061158;28;20472;-72
2022/07/24 11:03:20;;;;;;;6.03;3.45;;;31.70;38.40;;;;;;5059858;28;20551;-71
2022/07/24 11:06:08;;;;;;;5.50;3.42;;;31.80;37.70;;;;;;5056926;28;20029;-72
2022/07/24 11:08:41;;;;;;;6.20;3.83;;;32.10;37.40;;;;;;5056290;28;20400;-73
2022/07/24 11:11:13;;;;;;;9.70;3.67;;;32.00;37.40;;;;;;5061401;28;20044;-72
2022/07/24 11:13:43;;;;;;;6.80;4.13;;;32.00;37.50;;;;;;5062360;28;20041;-73
2022/07/24 11:16:16;;;;;;;7.22;3.78;;;32.00;37.30;;;;;;5063203;28;20032;-73
2022/07/24 11:19:02;;;;;;;7.78;3.75;;;32.10;37.50;;;;;;5064231;28;20045;-72
2022/07/24 11:21:40;;;;;;;6.75;3.40;;;32.10;37.30;;;;;;5063595;28;20033;-73
2022/07/24 11:24:21;;;;;;;7.22;3.72;;;32.20;36.60;;;;;;5061544;28;20071;-73
2022/07/24 11:26:59;;;;;;;5.30;3.53;;;32.20;36.70;;;;;;5057377;28;20063;-73
2022/07/24 11:29:32;;;;;;;6.45;3.40;;;32.40;36.50;;;;;;5064951;28;20039;-72
2022/07/24 11:32:01;;;;;;;7.28;3.75;;;32.40;36.60;;;;;;5066236;28;20036;-72
2022/07/24 11:34:28;;;;;;;5.78;3.65;;;32.50;36.20;;;;;;5067583;28;20041;-74
2022/07/24 11:36:56;;;;;;;7.72;3.70;;;32.70;35.80;;;;;;5064514;28;20028;-74
2022/07/24 11:39:32;;;;;;;5.88;3.10;;;32.80;36.00;;;;;;5063853;28;20568;-74
2022/07/24 11:42:01;;;;;;;5.60;3.55;;;32.80;36.00;;;;;;5063655;28;20059;-74
2022/07/24 11:44:35;;;;;;;6.57;3.58;;;32.80;36.20;;;;;;5063750;28;20484;-73
2022/07/24 11:47:15;;;;;;;8.32;4.05;;;32.60;36.50;;;;;;5063682;28;20037;-71
2022/07/24 11:49:46;;;;;;;6.57;3.95;;;32.50;36.70;;;;;;5064253;28;20459;-73
2022/07/24 11:52:20;;;;;;;7.85;3.63;;;32.50;36.60;;;;;;5061659;28;20384;-73
2022/07/24 11:54:49;;;;;;;7.28;3.92;;;32.50;36.50;;;;;;5061112;28;20052;-71
2022/07/24 11:57:33;;;;;;;8.05;4.25;;;32.30;37.00;;;;;;5060442;28;20025;-71
2022/07/24 11:59:59;;;;;;;7.68;4.28;;;32.30;37.30;;;;;;5062954;28;20040;-74
2022/07/24 12:02:25;;;;;;;9.02;4.00;;;32.40;37.50;;;;;;5063680;28;20097;-71
2022/07/24 12:04:51;;;;;;;6.95;4.25;;;32.50;37.20;;;;;;5063788;28;20036;-73
2022/07/24 12:07:23;;;;;;;8.13;4.07;;;32.40;37.00;;;;;;5060225;28;20041;-72
2022/07/24 12:09:58;;;;;;;10.35;4.40;;;32.60;36.70;;;;;;5057680;28;20040;-72
2022/07/24 12:12:39;;;;;;;8.30;4.00;;;32.60;37.30;;;;;;5062172;28;20031;-73
2022/07/24 12:15:08;;;;;;;7.13;4.70;;;32.60;37.30;;;;;;5061615;28;20068;-72
2022/07/24 12:17:51;;;;;;;6.90;4.60;;;32.80;36.80;;;;;;5065884;28;20039;-73
2022/07/24 12:20:21;;;;;;;6.85;3.95;;;32.70;37.30;;;;;;5065969;28;20044;-71
2022/07/24 12:22:47;;;;;;;6.95;4.13;;;33.00;36.70;;;;;;5068511;28;20048;-74
2022/07/24 12:25:14;;;;;;;6.88;4.38;;;33.00;36.50;;;;;;5069660;28;20074;-72
2022/07/24 12:27:47;;;;;;;9.13;4.20;;;33.30;36.30;;;;;;5060510;28;20029;-72
2022/07/24 12:30:27;;;;;;;8.07;4.07;;;33.00;36.10;;;;;;5062137;28;20036;-73
2022/07/24 12:33:04;;;;;;;7.18;4.25;;;33.20;36.40;;;;;;5061588;28;20036;-71
2022/07/24 12:35:32;;;;;;;6.40;4.00;;;33.30;36.30;;;;;;5062217;28;20311;-73
2022/07/24 12:37:59;;;;;;;6.38;4.38;;;33.30;36.20;;;;;;5060536;28;20041;-72